createdAt,value
2023-03-18T00:01:07.225Z,14.7
2023-03-18T00:02:15.807Z,10.6
2023-03-18T00:03:24.115Z,10.6
2023-03-18T00:04:32.414Z,10.6
2023-03-18T00:05:40.953Z,13.3
2023-03-18T00:06:49.284Z,13.3
2023-03-18T00:07:57.595Z,13.3
2023-03-18T00:09:06.107Z,11
2023-03-18T00:10:14.461Z,11
2023-03-18T00:11:22.764Z,11
2023-03-18T00:12:31.297Z,12.8
2023-03-18T00:13:39.662Z,12.8
2023-03-18T00:14:47.970Z,12.8
2023-03-18T00:15:56.553Z,14.1
2023-03-18T00:17:04.850Z,14.1
2023-03-18T00:18:13.164Z,14.1
2023-03-18T00:19:21.706Z,10.9
2023-03-18T00:20:30.316Z,10.9
2023-03-18T00:21:38.365Z,10.9
2023-03-18T00:22:46.982Z,13.3
2023-03-18T00:23:55.232Z,13.3
2023-03-18T00:25:03.580Z,13.3
2023-03-18T00:26:12.161Z,16.1
2023-03-18T00:27:20.474Z,16.1
2023-03-18T00:28:28.814Z,16.1
2023-03-18T00:29:37.349Z,12.5
2023-03-18T00:30:45.687Z,12.5
2023-03-18T00:31:54.018Z,12.5
2023-03-18T00:33:02.592Z,13.8
2023-03-18T00:34:12.460Z,13.8
2023-03-18T00:35:19.241Z,13.8
2023-03-18T00:36:27.780Z,12
2023-03-18T00:37:36.097Z,12
2023-03-18T00:38:44.433Z,12
2023-03-18T00:39:52.959Z,11.5
2023-03-18T00:41:01.377Z,11.5
2023-03-18T00:42:09.640Z,11.5
2023-03-18T00:43:18.153Z,11.1
2023-03-18T00:44:26.504Z,11.1
2023-03-18T00:45:34.834Z,11.1
2023-03-18T00:46:43.428Z,12.5
2023-03-18T00:47:51.688Z,12.5
2023-03-18T00:49:00.034Z,12.5
2023-03-18T00:50:08.619Z,12.8
2023-03-18T00:51:16.915Z,12.8
2023-03-18T00:52:25.224Z,12.8
2023-03-18T00:53:33.760Z,13.7
2023-03-18T00:54:42.088Z,13.7
2023-03-18T00:55:50.441Z,13.7
2023-03-18T00:56:58.994Z,14.7
2023-03-18T00:58:07.320Z,14.7
2023-03-18T00:59:15.646Z,14.7
2023-03-18T01:00:24.204Z,12.9
2023-03-18T01:01:32.524Z,12.9
2023-03-18T01:02:40.853Z,12.9
2023-03-18T01:03:49.382Z,11.6
2023-03-18T01:04:57.714Z,11.6
2023-03-18T01:06:06.060Z,11.6
2023-03-18T01:07:14.593Z,13.3
2023-03-18T01:08:22.934Z,13.3
2023-03-18T01:09:31.243Z,13.3
2023-03-18T01:10:39.811Z,11.5
2023-03-18T01:11:48.114Z,11.5
2023-03-18T01:12:56.432Z,11.5
2023-03-18T01:14:04.983Z,11.7
2023-03-18T01:15:13.315Z,11.7
2023-03-18T01:16:21.683Z,11.7
2023-03-18T01:17:30.164Z,12.4
2023-03-18T01:18:38.483Z,12.4
2023-03-18T01:19:46.825Z,12.4
2023-03-18T01:20:55.354Z,11.5
2023-03-18T01:22:03.683Z,11.5
2023-03-18T01:23:12.005Z,11.5
2023-03-18T01:24:20.556Z,14
2023-03-18T01:25:28.899Z,14
2023-03-18T01:26:37.225Z,14
2023-03-18T01:27:45.751Z,10.9
2023-03-18T01:28:54.087Z,10.9
2023-03-18T01:30:02.442Z,10.9
2023-03-18T01:31:10.948Z,12.1
2023-03-18T01:32:19.282Z,12.1
2023-03-18T01:33:27.618Z,12.1
2023-03-18T01:34:36.165Z,15.4
2023-03-18T01:35:44.499Z,15.4
2023-03-18T01:36:52.802Z,15.4
2023-03-18T01:38:01.334Z,12.4
2023-03-18T01:39:09.659Z,12.4
2023-03-18T01:40:17.997Z,12.4
2023-03-18T01:41:26.567Z,10.1
2023-03-18T01:42:34.879Z,10.1
2023-03-18T01:43:43.214Z,10.1
2023-03-18T01:44:51.753Z,12
2023-03-18T01:46:00.151Z,12
2023-03-18T01:47:08.417Z,12
2023-03-18T01:48:16.972Z,11.2
2023-03-18T01:49:25.299Z,11.2
2023-03-18T01:50:34.203Z,11.2
2023-03-18T01:51:42.184Z,10.5
2023-03-18T01:52:50.514Z,10.5
2023-03-18T01:53:58.838Z,10.5
2023-03-18T01:55:07.368Z,11
2023-03-18T01:56:15.672Z,11
2023-03-18T01:57:24.015Z,11
2023-03-18T01:58:32.547Z,12.3
2023-03-18T01:59:40.867Z,12.3
2023-03-18T02:00:49.280Z,12.3
2023-03-18T02:01:57.796Z,10.7
2023-03-18T02:03:06.089Z,10.7
2023-03-18T02:05:15.295Z,11.9
2023-03-18T02:06:23.614Z,11.9
2023-03-18T02:07:31.969Z,11.9
2023-03-18T02:08:40.501Z,13
2023-03-18T02:09:48.847Z,13
2023-03-18T02:10:57.179Z,13
2023-03-18T02:12:05.709Z,11.3
2023-03-18T02:13:14.033Z,11.3
2023-03-18T02:14:22.379Z,11.3
2023-03-18T02:15:30.901Z,11
2023-03-18T02:16:39.223Z,11
2023-03-18T02:17:47.615Z,11
2023-03-18T02:18:56.098Z,11.4
2023-03-18T02:20:04.451Z,11.4
2023-03-18T02:21:12.814Z,11.4
2023-03-18T02:22:21.295Z,12.8
2023-03-18T02:23:29.667Z,12.8
2023-03-18T02:24:37.982Z,12.8
2023-03-18T02:25:46.543Z,12.3
2023-03-18T02:26:54.847Z,12.3
2023-03-18T02:28:03.180Z,12.3
2023-03-18T02:29:11.715Z,10
2023-03-18T02:30:20.034Z,10
2023-03-18T02:31:28.358Z,10
2023-03-18T02:32:36.934Z,12.4
2023-03-18T02:33:45.237Z,12.4
2023-03-18T02:34:53.526Z,12.4
2023-03-18T02:36:02.142Z,12.4
2023-03-18T02:37:10.378Z,12.4
2023-03-18T02:38:18.709Z,12.4
2023-03-18T02:39:27.235Z,10.9
2023-03-18T02:40:35.564Z,10.9
2023-03-18T02:41:43.927Z,10.9
2023-03-18T02:42:52.471Z,9.9
2023-03-18T02:44:00.807Z,9.9
2023-03-18T02:45:09.131Z,9.9
2023-03-18T02:46:17.699Z,14.1
2023-03-18T02:47:26.017Z,14.1
2023-03-18T02:48:34.322Z,14.1
2023-03-18T02:49:42.884Z,13.5
2023-03-18T02:50:51.183Z,13.5
2023-03-18T02:51:59.520Z,13.5
2023-03-18T02:53:08.070Z,11.2
2023-03-18T02:54:16.391Z,11.2
2023-03-18T02:55:24.707Z,11.2
2023-03-18T02:56:33.249Z,12.4
2023-03-18T02:57:41.599Z,12.4
2023-03-18T02:58:51.678Z,12.4
2023-03-18T02:59:58.433Z,11.4
2023-03-18T03:01:06.764Z,11.4
2023-03-18T03:02:15.124Z,11.4
2023-03-18T03:03:23.818Z,8.3
2023-03-18T03:04:31.955Z,8.3
2023-03-18T03:05:40.335Z,8.3
2023-03-18T03:06:48.858Z,8
2023-03-18T03:07:57.160Z,8
2023-03-18T03:09:05.520Z,8
2023-03-18T03:10:14.040Z,9.4
2023-03-18T03:11:22.352Z,9.4
2023-03-18T03:12:30.689Z,9.4
2023-03-18T03:13:39.214Z,11.7
2023-03-18T03:14:47.537Z,11.7
2023-03-18T03:15:55.940Z,11.7
2023-03-18T03:17:04.404Z,13.4
2023-03-18T03:18:12.759Z,13.4
2023-03-18T03:19:21.078Z,13.4
2023-03-18T03:20:29.809Z,11.2
2023-03-18T03:21:38.019Z,11.2
2023-03-18T03:22:46.286Z,11.2
2023-03-18T03:23:54.825Z,10.3
2023-03-18T03:25:03.171Z,10.3
2023-03-18T03:26:11.494Z,10.3
2023-03-18T03:27:20.031Z,9.2
2023-03-18T03:28:28.361Z,9.2
2023-03-18T03:29:36.680Z,9.2
2023-03-18T03:30:45.292Z,8.7
2023-03-18T03:31:53.569Z,8.7
2023-03-18T03:33:02.031Z,8.7
2023-03-18T03:34:10.449Z,10.4
2023-03-18T03:35:18.773Z,10.4
2023-03-18T03:36:27.095Z,10.4
2023-03-18T03:37:35.672Z,9.2
2023-03-18T03:38:43.965Z,9.2
2023-03-18T03:39:52.306Z,9.2
2023-03-18T03:41:00.842Z,9.9
2023-03-18T03:42:09.179Z,9.9
2023-03-18T03:43:17.519Z,9.9
2023-03-18T03:44:26.038Z,10.5
2023-03-18T03:45:34.393Z,10.5
2023-03-18T03:46:42.740Z,10.5
2023-03-18T03:47:51.231Z,8.3
2023-03-18T03:48:59.551Z,8.3
2023-03-18T03:50:07.880Z,8.3
2023-03-18T03:51:16.432Z,9
2023-03-18T03:52:24.745Z,9
2023-03-18T03:53:33.104Z,9
2023-03-18T03:54:41.613Z,8.4
2023-03-18T03:55:49.951Z,8.4
2023-03-18T03:56:58.285Z,8.4
2023-03-18T03:58:06.831Z,7.9
2023-03-18T03:59:15.144Z,7.9
2023-03-18T04:00:23.494Z,7.9
2023-03-18T04:01:32.021Z,8.9
2023-03-18T04:02:40.372Z,8.9
2023-03-18T04:03:48.727Z,8.9
2023-03-18T04:04:57.192Z,9.2
2023-03-18T04:06:05.571Z,9.2
2023-03-18T04:07:13.859Z,9.2
2023-03-18T04:08:22.392Z,14
2023-03-18T04:09:30.786Z,14
2023-03-18T04:10:39.078Z,14
2023-03-18T04:11:47.609Z,8.4
2023-03-18T04:12:55.929Z,8.4
2023-03-18T04:14:04.278Z,8.4
2023-03-18T04:15:12.822Z,8.2
2023-03-18T04:16:21.177Z,8.2
2023-03-18T04:17:29.488Z,8.2
2023-03-18T04:18:38.008Z,8.2
2023-03-18T04:19:46.344Z,8.2
2023-03-18T04:20:54.674Z,8.2
2023-03-18T04:22:03.191Z,8.4
2023-03-18T04:23:11.538Z,8.4
2023-03-18T04:24:19.854Z,8.4
2023-03-18T04:25:28.452Z,10.2
2023-03-18T04:26:36.734Z,10.2
2023-03-18T04:27:45.047Z,10.2
2023-03-18T04:28:53.581Z,8.5
2023-03-18T04:30:01.924Z,8.5
2023-03-18T04:31:10.293Z,8.5
2023-03-18T04:32:18.770Z,9.1
2023-03-18T04:33:27.110Z,9.1
2023-03-18T04:34:35.449Z,9.1
2023-03-18T04:35:44.004Z,8.4
2023-03-18T04:36:52.307Z,8.4
2023-03-18T04:38:00.630Z,8.4
2023-03-18T04:39:09.173Z,8.4
2023-03-18T04:40:17.500Z,8.4
2023-03-18T04:41:25.839Z,8.4
2023-03-18T04:42:34.363Z,9.2
2023-03-18T04:43:42.686Z,9.2
2023-03-18T04:44:51.001Z,9.2
2023-03-18T04:45:59.547Z,7.6
2023-03-18T04:47:07.888Z,7.6
2023-03-18T04:48:16.204Z,7.6
2023-03-18T04:49:24.725Z,8
2023-03-18T04:50:33.366Z,8
2023-03-18T04:51:41.384Z,8
2023-03-18T04:52:49.917Z,7.8
2023-03-18T04:53:58.235Z,7.8
2023-03-18T04:55:06.580Z,7.8
2023-03-18T04:56:15.093Z,8.5
2023-03-18T04:57:23.451Z,8.5
2023-03-18T04:58:31.742Z,8.5
2023-03-18T04:59:40.273Z,9.9
2023-03-18T05:00:48.631Z,9.9
2023-03-18T05:01:56.934Z,9.9
2023-03-18T05:03:05.475Z,8.1
2023-03-18T05:04:13.912Z,8.1
2023-03-18T05:05:22.145Z,8.1
2023-03-18T05:06:30.687Z,7.4
2023-03-18T05:07:39.015Z,7.4
2023-03-18T05:08:47.358Z,7.4
2023-03-18T05:09:55.875Z,8.1
2023-03-18T05:11:04.211Z,8.1
2023-03-18T05:12:12.545Z,8.1
2023-03-18T05:13:21.099Z,10.3
2023-03-18T05:14:29.383Z,10.3
2023-03-18T05:15:37.730Z,10.3
2023-03-18T05:16:46.333Z,8.1
2023-03-18T05:17:54.586Z,8.1
2023-03-18T05:19:02.920Z,8.1
2023-03-18T05:20:11.447Z,9.7
2023-03-18T05:21:19.773Z,9.7
2023-03-18T05:22:28.090Z,9.7
2023-03-18T05:23:36.606Z,9.8
2023-03-18T05:24:44.942Z,9.8
2023-03-18T05:25:53.284Z,9.8
2023-03-18T05:27:01.860Z,8.9
2023-03-18T05:28:11.357Z,8.9
2023-03-18T05:29:18.501Z,8.9
2023-03-18T05:30:27.002Z,10.7
2023-03-18T05:31:35.375Z,10.7
2023-03-18T05:32:43.663Z,10.7
2023-03-18T05:33:52.180Z,9.7
2023-03-18T05:35:00.518Z,9.7
2023-03-18T05:36:08.906Z,9.7
2023-03-18T05:37:17.373Z,10.2
2023-03-18T05:38:25.710Z,10.2
2023-03-18T05:39:34.041Z,10.2
2023-03-18T05:40:42.564Z,9.2
2023-03-18T05:41:50.920Z,9.2
2023-03-18T05:42:59.231Z,9.2
2023-03-18T05:44:07.748Z,9.7
2023-03-18T05:45:16.111Z,9.7
2023-03-18T05:46:24.411Z,9.7
2023-03-18T05:47:32.937Z,9.6
2023-03-18T05:48:41.248Z,9.6
2023-03-18T05:49:49.575Z,9.6
2023-03-18T05:50:58.119Z,9.3
2023-03-18T05:52:06.447Z,9.3
2023-03-18T05:53:14.800Z,9.3
2023-03-18T05:54:23.332Z,10.6
2023-03-18T05:55:31.913Z,10.6
2023-03-18T05:56:40.032Z,10.6
2023-03-18T05:57:48.544Z,9.4
2023-03-18T05:58:56.870Z,9.4
2023-03-18T06:00:05.194Z,9.4
2023-03-18T06:01:13.751Z,9.1
2023-03-18T06:02:22.078Z,9.1
2023-03-18T06:03:30.461Z,9.1
2023-03-18T06:04:38.976Z,10.5
2023-03-18T06:05:47.947Z,10.5
2023-03-18T06:06:56.080Z,10.5
2023-03-18T06:08:04.607Z,8.4
2023-03-18T06:09:12.926Z,8.4
2023-03-18T06:10:21.276Z,8.4
2023-03-18T06:11:29.801Z,10.6
2023-03-18T06:12:38.147Z,10.6
2023-03-18T06:13:46.464Z,10.6
2023-03-18T06:14:55.007Z,9
2023-03-18T06:16:03.320Z,9
2023-03-18T06:17:11.675Z,9
2023-03-18T06:18:20.177Z,8.8
2023-03-18T06:19:28.505Z,8.8
2023-03-18T06:20:36.851Z,8.8
2023-03-18T06:21:45.379Z,9.6
2023-03-18T06:22:53.734Z,9.6
2023-03-18T06:24:02.085Z,9.6
2023-03-18T06:25:10.621Z,8.5
2023-03-18T06:26:18.958Z,8.5
2023-03-18T06:27:27.291Z,8.5
2023-03-18T06:28:35.817Z,9.8
2023-03-18T06:29:44.165Z,9.8
2023-03-18T06:30:52.527Z,9.8
2023-03-18T06:32:01.025Z,9
2023-03-18T06:33:09.472Z,9
2023-03-18T06:34:17.688Z,9
2023-03-18T06:35:26.225Z,8.9
2023-03-18T06:36:34.542Z,8.9
2023-03-18T06:37:42.888Z,8.9
2023-03-18T06:38:51.412Z,8.8
2023-03-18T06:39:59.762Z,8.8
2023-03-18T06:41:08.161Z,8.8
2023-03-18T06:42:16.692Z,10
2023-03-18T06:43:25.015Z,10
2023-03-18T06:44:33.342Z,10
2023-03-18T06:45:41.915Z,8.8
2023-03-18T06:46:50.229Z,8.8
2023-03-18T06:47:58.545Z,8.8
2023-03-18T06:49:07.107Z,11.1
2023-03-18T06:50:15.397Z,11.1
2023-03-18T06:51:23.710Z,11.1
2023-03-18T06:52:32.227Z,9.9
2023-03-18T06:53:40.543Z,9.9
2023-03-18T06:54:48.854Z,9.9
2023-03-18T06:55:57.402Z,13.4
2023-03-18T06:57:05.733Z,13.4
2023-03-18T06:58:14.052Z,13.4
2023-03-18T06:59:22.605Z,10.4
2023-03-18T07:00:30.969Z,10.4
2023-03-18T07:01:39.284Z,10.4
2023-03-18T07:02:47.806Z,8.3
2023-03-18T07:03:56.120Z,8.3
2023-03-18T07:05:04.464Z,8.3
2023-03-18T07:06:12.972Z,9.2
2023-03-18T07:07:21.292Z,9.2
2023-03-18T07:08:29.622Z,9.2
2023-03-18T07:09:38.137Z,8.8
2023-03-18T07:10:49.088Z,8.8
2023-03-18T07:11:57.418Z,8.8
2023-03-18T07:13:05.953Z,9.8
2023-03-18T07:14:14.282Z,9.8
2023-03-18T07:15:22.610Z,9.8
2023-03-18T07:16:31.302Z,10.4
2023-03-18T07:17:39.652Z,10.4
2023-03-18T07:18:48.054Z,10.4
2023-03-18T07:19:56.603Z,12
2023-03-18T07:21:04.949Z,12
2023-03-18T07:22:13.295Z,12
2023-03-18T07:23:21.812Z,11.6
2023-03-18T07:24:30.151Z,11.6
2023-03-18T07:25:38.525Z,11.6
2023-03-18T07:26:47.074Z,11.7
2023-03-18T07:27:55.403Z,11.7
2023-03-18T07:29:03.735Z,11.7
2023-03-18T07:30:12.287Z,11.1
2023-03-18T07:31:20.650Z,11.1
2023-03-18T07:32:28.934Z,11.1
2023-03-18T07:33:37.479Z,11.7
2023-03-18T07:34:45.791Z,11.7
2023-03-18T07:35:54.135Z,11.7
2023-03-18T07:37:02.670Z,10.6
2023-03-18T07:38:10.958Z,10.6
2023-03-18T07:39:19.278Z,10.6
2023-03-18T07:40:27.820Z,12.7
2023-03-18T07:41:37.841Z,12.7
2023-03-18T07:42:44.481Z,12.7
2023-03-18T07:43:53.018Z,10.4
2023-03-18T07:45:01.346Z,10.4
2023-03-18T07:46:09.734Z,10.4
2023-03-18T07:47:18.227Z,10.6
2023-03-18T07:48:26.545Z,10.6
2023-03-18T07:49:34.864Z,10.6
2023-03-18T07:50:43.412Z,11.4
2023-03-18T07:51:51.733Z,11.4
2023-03-18T07:53:00.099Z,11.4
2023-03-18T07:54:08.585Z,9.6
2023-03-18T07:55:16.979Z,9.6
2023-03-18T07:56:25.294Z,9.6
2023-03-18T07:57:33.860Z,11.2
2023-03-18T07:58:42.183Z,11.2
2023-03-18T07:59:50.519Z,11.2
2023-03-18T08:00:59.064Z,9.8
2023-03-18T08:02:07.412Z,9.8
2023-03-18T08:03:15.733Z,9.8
2023-03-18T08:04:24.362Z,8.4
2023-03-18T08:05:32.791Z,8.4
2023-03-18T08:06:40.946Z,8.4
2023-03-18T08:07:49.487Z,8.8
2023-03-18T08:08:57.836Z,8.8
2023-03-18T08:10:06.123Z,8.8
2023-03-18T08:11:14.666Z,8.2
2023-03-18T08:12:22.985Z,8.2
2023-03-18T08:13:31.325Z,8.2
2023-03-18T08:14:39.858Z,8
2023-03-18T08:15:48.203Z,8
2023-03-18T08:16:56.539Z,8
2023-03-18T08:18:07.034Z,12.1
2023-03-18T08:19:13.409Z,12.1
2023-03-18T08:20:21.776Z,12.1
2023-03-18T08:21:30.283Z,8.3
2023-03-18T08:22:38.612Z,8.3
2023-03-18T08:23:46.950Z,8.3
2023-03-18T08:24:55.501Z,7
2023-03-18T08:26:03.802Z,7
2023-03-18T08:27:12.145Z,7
2023-03-18T08:28:20.694Z,7.7
2023-03-18T08:29:29.014Z,7.7
2023-03-18T08:30:37.363Z,7.7
2023-03-18T08:31:45.908Z,8.9
2023-03-18T08:32:54.243Z,8.9
2023-03-18T08:34:02.531Z,8.9
2023-03-18T08:35:11.064Z,8.6
2023-03-18T08:36:19.383Z,8.6
2023-03-18T08:37:27.719Z,8.6
2023-03-18T08:38:36.252Z,7.4
2023-03-18T08:39:44.563Z,7.4
2023-03-18T08:40:52.932Z,7.4
2023-03-18T08:42:01.442Z,7.3
2023-03-18T08:43:09.753Z,7.3
2023-03-18T08:44:18.106Z,7.3
2023-03-18T08:45:26.639Z,7.1
2023-03-18T08:46:34.960Z,7.1
2023-03-18T08:47:43.271Z,7.1
2023-03-18T08:48:51.798Z,6.9
2023-03-18T08:50:00.179Z,6.9
2023-03-18T08:51:08.475Z,6.9
2023-03-18T08:52:17.010Z,6.2
2023-03-18T08:53:25.322Z,6.2
2023-03-18T08:54:33.662Z,6.2
2023-03-18T08:55:42.201Z,5.2
2023-03-18T08:56:50.534Z,5.2
2023-03-18T08:57:58.818Z,5.2
2023-03-18T08:59:07.350Z,6.3
2023-03-18T09:00:15.670Z,6.3
2023-03-18T09:01:24.078Z,6.3
2023-03-18T09:02:32.538Z,4.8
2023-03-18T09:03:40.912Z,4.8
2023-03-18T09:04:49.176Z,4.8
2023-03-18T09:05:57.724Z,5.6
2023-03-18T09:07:06.018Z,5.6
2023-03-18T09:08:14.339Z,5.6
2023-03-18T09:09:28.550Z,4.3
2023-03-18T09:10:31.198Z,4.3
2023-03-18T09:11:39.537Z,4.3
2023-03-18T09:12:48.086Z,4.5
2023-03-18T09:13:56.397Z,4.5
2023-03-18T09:15:04.739Z,4.5
2023-03-18T09:16:13.295Z,8.3
2023-03-18T09:17:23.615Z,8.3
2023-03-18T09:18:29.958Z,8.3
2023-03-18T09:19:38.557Z,8.3
2023-03-18T09:20:46.838Z,8.3
2023-03-18T09:21:55.174Z,8.3
2023-03-18T09:23:03.695Z,6.4
2023-03-18T09:24:12.040Z,6.4
2023-03-18T09:25:20.371Z,6.4
2023-03-18T09:26:28.907Z,4.8
2023-03-18T09:27:37.217Z,4.8
2023-03-18T09:28:45.571Z,4.8
2023-03-18T09:29:54.084Z,5.8
2023-03-18T09:31:02.465Z,5.8
2023-03-18T09:32:10.748Z,5.8
2023-03-18T09:33:19.274Z,5.8
2023-03-18T09:34:27.605Z,5.8
2023-03-18T09:35:36.333Z,5.8
2023-03-18T09:36:44.467Z,7.6
2023-03-18T09:37:52.789Z,7.6
2023-03-18T09:39:01.133Z,7.6
2023-03-18T09:40:09.658Z,6.6
2023-03-18T09:41:18.010Z,6.6
2023-03-18T09:42:26.339Z,6.6
2023-03-18T09:43:34.903Z,12.5
2023-03-18T09:44:43.273Z,12.5
2023-03-18T09:45:51.642Z,12.5
2023-03-18T09:47:00.380Z,24.299999
2023-03-18T09:48:08.488Z,24.299999
2023-03-18T09:49:16.815Z,24.299999
2023-03-18T09:50:25.409Z,11.2
2023-03-18T09:51:33.709Z,11.2
2023-03-18T09:52:42.076Z,11.2
2023-03-18T09:53:50.641Z,24.9
2023-03-18T09:54:59.023Z,24.9
2023-03-18T09:56:07.343Z,24.9
2023-03-18T09:57:15.883Z,148.69999
2023-03-18T09:58:24.225Z,148.69999
2023-03-18T09:59:32.536Z,148.69999
2023-03-18T10:00:41.104Z,17.799999
2023-03-18T10:01:49.412Z,17.799999
2023-03-18T10:02:57.769Z,17.799999
2023-03-18T10:04:06.343Z,11.2
2023-03-18T10:05:14.657Z,11.2
2023-03-18T10:06:22.989Z,11.2
2023-03-18T10:07:31.506Z,5.4
2023-03-18T10:08:39.864Z,5.4
2023-03-18T10:09:48.178Z,5.4
2023-03-18T10:10:56.736Z,6.7
2023-03-18T10:12:05.078Z,6.7
2023-03-18T10:13:13.423Z,6.7
2023-03-18T10:14:21.981Z,51.900002
2023-03-18T10:15:30.729Z,51.900002
2023-03-18T10:16:38.683Z,51.900002
2023-03-18T10:17:47.209Z,4
2023-03-18T10:18:55.521Z,4
2023-03-18T10:20:03.839Z,4
2023-03-18T10:21:12.388Z,5.3
2023-03-18T10:22:20.716Z,5.3
2023-03-18T10:23:29.051Z,5.3
2023-03-18T10:24:37.601Z,5.7
2023-03-18T10:25:45.928Z,5.7
2023-03-18T10:26:54.252Z,5.7
2023-03-18T10:28:02.796Z,4.7
2023-03-18T10:29:11.118Z,4.7
2023-03-18T10:30:19.466Z,4.7
2023-03-18T10:31:28.029Z,6.5
2023-03-18T10:32:48.903Z,6.5
2023-03-18T10:33:44.673Z,6.5
2023-03-18T10:34:53.210Z,6.3
2023-03-18T10:36:01.586Z,6.3
2023-03-18T10:37:09.858Z,6.3
2023-03-18T10:38:18.405Z,65.900002
2023-03-18T10:39:26.742Z,65.900002
2023-03-18T10:40:35.075Z,65.900002
2023-03-18T10:41:43.666Z,10.7
2023-03-18T10:42:51.956Z,10.7
2023-03-18T10:44:00.285Z,10.7
2023-03-18T10:45:08.823Z,5.6
2023-03-18T10:46:17.280Z,5.6
2023-03-18T10:47:25.533Z,5.6
2023-03-18T10:48:34.063Z,12
2023-03-18T10:49:42.382Z,12
2023-03-18T10:50:50.734Z,12
2023-03-18T10:51:59.275Z,4.2
2023-03-18T10:53:07.629Z,4.2
2023-03-18T10:54:15.957Z,4.2
2023-03-18T10:55:24.519Z,5.1
2023-03-18T10:56:32.843Z,5.1
2023-03-18T10:57:41.177Z,5.1
2023-03-18T10:58:49.708Z,9.6
2023-03-18T10:59:58.037Z,9.6
2023-03-18T11:01:06.369Z,9.6
2023-03-18T11:02:14.923Z,6.1
2023-03-18T11:03:23.254Z,6.1
2023-03-18T11:04:31.581Z,6.1
2023-03-18T11:05:40.102Z,8.3
2023-03-18T11:06:48.438Z,8.3
2023-03-18T11:07:56.765Z,8.3
2023-03-18T11:09:05.296Z,5.3
2023-03-18T11:10:13.631Z,5.3
2023-03-18T11:11:21.950Z,5.3
2023-03-18T11:12:30.501Z,5.9
2023-03-18T11:13:38.832Z,5.9
2023-03-18T11:14:47.155Z,5.9
2023-03-18T11:15:55.749Z,6.2
2023-03-18T11:17:04.042Z,6.2
2023-03-18T11:18:12.387Z,6.2
2023-03-18T11:19:20.922Z,4.2
2023-03-18T11:20:29.290Z,4.2
2023-03-18T11:21:37.611Z,4.2
2023-03-18T11:22:46.173Z,6
2023-03-18T11:23:57.540Z,6
2023-03-18T11:25:05.864Z,6
2023-03-18T11:26:14.432Z,4.8
2023-03-18T11:27:22.753Z,4.8
2023-03-18T11:28:31.084Z,4.8
2023-03-18T11:29:39.653Z,5.6
2023-03-18T11:30:47.973Z,5.6
2023-03-18T11:31:56.317Z,5.6
2023-03-18T11:33:04.895Z,6.2
2023-03-18T11:34:13.176Z,6.2
2023-03-18T11:35:21.579Z,6.2
2023-03-18T11:36:30.105Z,3.5
2023-03-18T11:37:38.417Z,3.5
2023-03-18T11:38:46.766Z,3.5
2023-03-18T11:39:59.055Z,4
2023-03-18T11:41:03.672Z,4
2023-03-18T11:42:12.003Z,4
2023-03-18T11:43:20.546Z,4.7
2023-03-18T11:44:28.886Z,4.7
2023-03-18T11:45:37.216Z,4.7
2023-03-18T11:46:45.965Z,3.5
2023-03-18T11:47:54.123Z,3.5
2023-03-18T11:49:02.482Z,3.5
2023-03-18T11:50:11.033Z,3.9
2023-03-18T11:51:19.367Z,3.9
2023-03-18T11:52:27.766Z,3.9
2023-03-18T11:53:36.298Z,3.7
2023-03-18T11:54:44.630Z,3.7
2023-03-18T11:55:52.977Z,3.7
2023-03-18T11:57:01.537Z,3.4
2023-03-18T11:58:09.882Z,3.4
2023-03-18T11:59:18.208Z,3.4
2023-03-18T12:00:28.345Z,2.7
2023-03-18T12:01:36.697Z,2.7
2023-03-18T12:02:44.982Z,2.7
2023-03-18T12:03:53.536Z,3
2023-03-18T12:05:01.947Z,3
2023-03-18T12:06:10.187Z,3
2023-03-18T12:07:18.730Z,4
2023-03-18T12:08:27.082Z,4
2023-03-18T12:09:35.378Z,4
2023-03-18T12:10:43.939Z,5.6
2023-03-18T12:11:52.268Z,5.6
2023-03-18T12:13:00.582Z,5.6
2023-03-18T12:14:09.123Z,1.9
2023-03-18T12:15:17.452Z,1.9
2023-03-18T12:16:25.813Z,1.9
2023-03-18T12:17:34.344Z,3.7
2023-03-18T12:18:43.080Z,3.7
2023-03-18T12:19:50.990Z,3.7
2023-03-18T12:20:59.547Z,2.8
2023-03-18T12:22:07.874Z,2.8
2023-03-18T12:23:16.232Z,2.8
2023-03-18T12:24:24.803Z,1.9
2023-03-18T12:25:33.131Z,1.9
2023-03-18T12:26:41.456Z,1.9
2023-03-18T12:27:49.982Z,5.4
2023-03-18T12:28:59.814Z,5.4
2023-03-18T12:30:06.632Z,5.4
2023-03-18T12:31:15.187Z,3
2023-03-18T12:32:23.512Z,3
2023-03-18T12:33:31.860Z,3
2023-03-18T12:34:40.383Z,3.6
2023-03-18T12:35:48.777Z,3.6
2023-03-18T12:36:57.048Z,3.6
2023-03-18T12:38:05.567Z,12.6
2023-03-18T12:39:13.894Z,12.6
2023-03-18T12:40:22.272Z,12.6
2023-03-18T12:41:30.786Z,8.6
2023-03-18T12:42:39.107Z,8.6
2023-03-18T12:43:47.484Z,8.6
2023-03-18T12:44:56.015Z,10.6
2023-03-18T12:46:04.395Z,10.6
2023-03-18T12:47:12.693Z,10.6
2023-03-18T12:48:33.651Z,4.7
2023-03-18T12:49:29.588Z,4.7
2023-03-18T12:50:37.911Z,4.7
2023-03-18T12:51:46.488Z,7.4
2023-03-18T12:52:54.787Z,7.4
2023-03-18T12:54:03.127Z,7.4
2023-03-18T12:55:11.700Z,6.8
2023-03-18T12:56:20.045Z,6.8
2023-03-18T12:57:28.328Z,6.8
2023-03-18T12:58:36.902Z,6
2023-03-18T12:59:45.286Z,6
2023-03-18T13:00:53.704Z,6
2023-03-18T13:02:02.218Z,5.2
2023-03-18T13:03:10.456Z,5.2
2023-03-18T13:04:18.844Z,5.2
2023-03-18T13:05:27.420Z,4.2
2023-03-18T13:06:35.753Z,4.2
2023-03-18T13:07:44.127Z,4.2
2023-03-18T13:08:52.714Z,4.1
2023-03-18T13:10:01.029Z,4.1
2023-03-18T13:11:11.789Z,4.1
2023-03-18T13:12:17.972Z,4.5
2023-03-18T13:13:26.284Z,4.5
2023-03-18T13:14:34.622Z,4.5
2023-03-18T13:15:43.177Z,9.9
2023-03-18T13:16:51.554Z,9.9
2023-03-18T13:17:59.840Z,9.9
2023-03-18T13:19:08.383Z,4.9
2023-03-18T13:20:16.732Z,4.9
2023-03-18T13:21:25.058Z,4.9
2023-03-18T13:22:33.618Z,4.5
2023-03-18T13:23:41.928Z,4.5
2023-03-18T13:24:50.283Z,4.5
2023-03-18T13:25:58.822Z,3.5
2023-03-18T13:27:07.160Z,3.5
2023-03-18T13:28:15.539Z,3.5
2023-03-18T13:29:24.047Z,4.3
2023-03-18T13:30:32.732Z,4.3
2023-03-18T13:31:40.793Z,4.3
2023-03-18T13:32:49.366Z,3.7
2023-03-18T13:33:57.699Z,3.7
2023-03-18T13:35:06.046Z,3.7
2023-03-18T13:36:14.617Z,3.2
2023-03-18T13:37:22.968Z,3.2
2023-03-18T13:38:31.315Z,3.2
2023-03-18T13:39:39.864Z,3.9
2023-03-18T13:40:48.224Z,3.9
2023-03-18T13:41:56.571Z,3.9
2023-03-18T13:43:05.105Z,3.4
2023-03-18T13:44:13.483Z,3.4
2023-03-18T13:45:21.810Z,3.4
2023-03-18T13:46:30.381Z,3.9
2023-03-18T13:47:38.781Z,3.9
2023-03-18T13:48:47.121Z,3.9
2023-03-18T13:49:55.683Z,12.3
2023-03-18T13:51:04.028Z,12.3
2023-03-18T13:52:12.359Z,12.3
2023-03-18T13:53:20.908Z,6.1
2023-03-18T13:54:29.239Z,6.1
2023-03-18T13:55:37.582Z,6.1
2023-03-18T13:56:46.115Z,3.2
2023-03-18T13:57:54.467Z,3.2
2023-03-18T13:59:02.801Z,3.2
2023-03-18T14:00:11.447Z,3.8
2023-03-18T14:01:19.727Z,3.8
2023-03-18T14:02:28.103Z,3.8
2023-03-18T14:03:36.684Z,4.8
2023-03-18T14:04:45.001Z,4.8
2023-03-18T14:05:53.348Z,4.8
2023-03-18T14:07:01.922Z,4.2
2023-03-18T14:08:10.281Z,4.2
2023-03-18T14:09:18.631Z,4.2
2023-03-18T14:10:27.211Z,5
2023-03-18T14:11:35.518Z,5
2023-03-18T14:12:43.876Z,5
2023-03-18T14:13:52.416Z,3.7
2023-03-18T14:15:00.735Z,3.7
2023-03-18T14:16:09.139Z,3.7
2023-03-18T14:17:17.660Z,4.5
2023-03-18T14:18:27.801Z,4.5
2023-03-18T14:19:34.465Z,4.5
2023-03-18T14:20:43.022Z,5.9
2023-03-18T14:21:51.346Z,5.9
2023-03-18T14:22:59.674Z,5.9
2023-03-18T14:24:08.348Z,5
2023-03-18T14:25:16.567Z,5
2023-03-18T14:26:24.929Z,5
2023-03-18T14:27:33.444Z,4.2
2023-03-18T14:28:41.787Z,4.2
2023-03-18T14:29:50.121Z,4.2
2023-03-18T14:30:58.718Z,16
2023-03-18T14:32:07.059Z,16
2023-03-18T14:33:15.415Z,16
2023-03-18T14:34:23.961Z,7.4
2023-03-18T14:35:32.573Z,7.4
2023-03-18T14:36:40.622Z,7.4
2023-03-18T14:37:49.167Z,5.6
2023-03-18T14:38:57.502Z,5.6
2023-03-18T14:40:05.883Z,5.6
2023-03-18T14:41:14.430Z,7.1
2023-03-18T14:42:22.773Z,7.1
2023-03-18T14:43:31.114Z,7.1
2023-03-18T14:44:39.650Z,6
2023-03-18T14:45:47.988Z,6
2023-03-18T14:46:56.372Z,6
2023-03-18T14:48:04.889Z,10.4
2023-03-18T14:49:13.186Z,10.4
2023-03-18T14:50:21.626Z,10.4
2023-03-18T14:51:30.078Z,7.9
2023-03-18T14:52:38.437Z,7.9
2023-03-18T14:53:48.713Z,7.9
2023-03-18T14:54:55.337Z,4.6
2023-03-18T14:56:03.667Z,4.6
2023-03-18T14:57:12.013Z,4.6
2023-03-18T14:58:20.569Z,8.8
2023-03-18T14:59:28.902Z,8.8
2023-03-18T15:00:37.252Z,8.8
2023-03-18T15:01:45.832Z,12.7
2023-03-18T15:02:54.135Z,12.7
2023-03-18T15:04:02.512Z,12.7
2023-03-18T15:05:11.061Z,6
2023-03-18T15:06:19.422Z,6
2023-03-18T15:40:44.689Z,0
2023-03-18T15:41:53.030Z,0
2023-03-18T15:43:01.422Z,0
2023-03-18T15:44:09.975Z,8.7
2023-03-18T15:45:18.332Z,8.7
2023-03-18T15:46:26.672Z,8.7
2023-03-18T15:47:35.245Z,8.2
2023-03-18T15:48:43.584Z,8.2
2023-03-18T15:49:51.943Z,8.2
2023-03-18T15:51:00.494Z,5.3
2023-03-18T15:52:08.812Z,5.3
2023-03-18T15:53:17.150Z,5.3
2023-03-18T15:54:25.708Z,5.6
2023-03-18T15:55:34.577Z,5.6
2023-03-18T15:56:42.495Z,5.6
2023-03-18T15:57:51.064Z,10.5
2023-03-18T15:58:59.388Z,10.5
2023-03-18T16:00:07.842Z,10.5
2023-03-18T16:01:16.426Z,4.9
2023-03-18T16:02:24.750Z,4.9
2023-03-18T16:03:33.087Z,4.9
2023-03-18T16:04:41.675Z,5.2
2023-03-18T16:05:50.028Z,5.2
2023-03-18T16:06:58.380Z,5.2
2023-03-18T16:08:06.942Z,5.1
2023-03-18T16:09:15.278Z,5.1